Seattle Tacoma International Airport Seattle US
ICAO: KSEA
IATA: SEA
Category: Large
Scheduled Services: Yes

Elevation: 433 ft
TransAlt. 18000 ft.

Airport Communications:
APP/DEP:119.2
ATIS:118
CLNC DEL:128
GND:121.7
TWR:119.9
UNICOM:122.95

KSEA Zoom In..

If you have problems with the map follow the link
https://www.worldairports.se/pages/airport.php?
ICAO=KSEA

Runways:

(A) RW 16C length 9426 ft width 150 ft
ILS 111.70 / hdg 163

(B) RW 16L length 11901 ft width 150 ft
ILS 110.30 / hdg 163

(C) RW 16R length 8500 ft width 150 ft
ILS 110.75 / hdg 163

(D) RW 34C length 9426 ft width 150 ft
ILS 111.70 / hdg 343

(E) RW 34L length 8500 ft width 150 ft
ILS 110.75 / hdg 343

(F) RW 34R length 11901 ft width 150 ft
ILS 110.30 / hdg 343

Location; KSEA
Day. 28 / Time. 13.53 Zulu
* Altimeter: 29.86
* Temperature: 08° c. 46.4°f.
* Wind from: 200° Speed 05 kn.
Dewpoint: 07° c.
Visibility: 3 Statute Miles.
Clouds: Few 2700 ft.
Clouds: Overcast 3600 ft.
Conditions: Light Rain.Conditions: Mist.

KSEA 281353Z 20005KT 3SM -RA BR FEW027 OVC036 08/07 A2986 RMK AO2 RAB03 SLP119 P0014 T00830067


Wind From 200°
Speed 05 kn.

 
 
jpsmedia worldairports.se 2020   terms of use